Terminal Aerodrome Forecast
Issued by NWS

Home | Current Version | Previous Version | Text Only | Print | Product List | Glossary On
Versions: 1 2 3 4 5 6 7 8 9 10 11 12 13 14 15 16 17 18 19 20 21 22 23 24 25 26 27 28 29 30 31 32 33
087
FTUS43 KGRB 242329
TAFRHI
TAF
KRHI 242329Z 2500/2524 02004KT 5SM BR OVC006
     FM251500 07009KT P6SM OVC015
     FM251800 08009KT P6SM BKN030
      TEMPO 2518/2522 SCT030 BKN250
     FM252200 08008KT P6SM BKN025=

USA.gov is the U.S. government's official web portal to all federal, state and local government web resources and services.